| time (UTC) | temp C | wind direction | speed KPH | gust KPH | rain 1hr cm | rain 24hr cm | rain mn cm | humidity % | barometer mb |
| 20260510143045 | 11 | 76 | 32.2 | 49.9 | 0.00 | 0.00 | 0.00 | 70 | 1017.4 |
| 20260510141549 | 11 | 44 | 33.8 | 46.7 | 0.00 | 0.00 | 0.00 | 70 | 1017.6 |
| 20260510140043 | 11 | 40 | 30.6 | 45.1 | 0.00 | 0.00 | 0.00 | 71 | 1017.4 |
| 20260510134539 | 11 | 61 | 35.4 | 49.9 | 0.00 | 0.00 | 0.00 | 71 | 1016.8 |
| 20260510133049 | 11 | 35 | 32.2 | 45.1 | 0.00 | 0.00 | 0.00 | 72 | 1016.5 |
| 20260510131535 | 11 | 30 | 24.1 | 46.7 | 0.00 | 0.00 | 0.00 | 73 | 1016.4 |
| 20260510130034 | 11 | 32 | 35.4 | 51.5 | 0.00 | 0.00 | 0.00 | 74 | 1016.1 |
| 20260510124530 | 11 | 56 | 32.2 | 45.1 | 0.00 | 0.00 | 0.00 | 74 | 1015.4 |
| 20260510123031 | 11 | 36 | 24.1 | 45.1 | 0.00 | 0.00 | 0.00 | 75 | 1015.1 |
| 20260510121525 | 11 | 15 | 24.1 | 38.6 | 0.00 | 0.00 | 0.00 | 77 | 1014.5 |
| 20260510120026 | 11 | 9 | 24.1 | 38.6 | 0.00 | 0.00 | 0.00 | 79 | 1014.3 |
| 20260510114523 | 11 | 15 | 19.3 | 37.0 | 0.00 | 0.00 | 0.00 | 81 | 1014.0 |
| 20260510113115 | 12 | 15 | 24.1 | 37.0 | 0.00 | 0.00 | 0.00 | 81 | 1013.3 |
| 20260510111513 | 12 | 360 | 24.1 | 40.2 | 0.00 | 0.00 | 0.00 | 80 | 1013.0 |
| 20260510110011 | 12 | 360 | 24.1 | 32.2 | 0.00 | 0.00 | 0.00 | 79 | 1012.5 |
| 20260510104509 | 12 | 17 | 29.0 | 38.6 | 0.00 | 0.00 | 0.00 | 79 | 1012.2 |
| 20260510103006 | 13 | 360 | 19.3 | 30.6 | 0.00 | 0.00 | 0.00 | 79 | 1012.5 |
| 20260510101501 | 13 | 15 | 22.5 | 32.2 | 0.00 | 0.00 | 0.00 | 78 | 1013.0 |
| 20260510100101 | 13 | 15 | 20.9 | 37.0 | 0.00 | 0.00 | 0.00 | 77 | 1013.2 |
| 20260510094556 | 13 | 17 | 27.4 | 37.0 | 0.00 | 0.00 | 0.00 | 76 | 1013.1 |
| 20260510093054 | 13 | 15 | 22.5 | 37.0 | 0.00 | 0.00 | 0.00 | 76 | 1012.7 |
| 20260510091557 | 13 | 14 | 24.1 | 40.2 | 0.00 | 0.00 | 0.00 | 76 | 1012.2 |
| 20260510090050 | 13 | 13 | 30.6 | 45.1 | 0.00 | 0.00 | 0.00 | 75 | 1011.3 |
| 20260510084544 | 13 | 14 | 19.3 | 30.6 | 0.00 | 0.00 | 0.00 | 71 | 1010.4 |
| 20260510083042 | 13 | 14 | 20.9 | 35.4 | 0.00 | 0.00 | 0.00 | 69 | 1010.0 |
| 20260510081544 | 14 | 15 | 19.3 | 37.0 | 0.00 | 0.00 | 0.00 | 68 | 1009.8 |
| 20260510080037 | 14 | 15 | 25.7 | 33.8 | 0.00 | 0.00 | 0.00 | 67 | 1009.8 |
| 20260510074535 | 14 | 15 | 24.1 | 35.4 | 0.00 | 0.00 | 0.00 | 67 | 1010.0 |
| 20260510073034 | 13 | 18 | 14.5 | 22.5 | 0.00 | 0.00 | 0.00 | 65 | 1009.1 |
| 20260510071529 | 14 | 360 | 14.5 | 19.3 | 0.00 | 0.00 | 0.00 | 62 | 1008.2 |
| 20260510070025 | 15 | 360 | 9.7 | 14.5 | 0.00 | 0.00 | 0.00 | 59 | 1008.1 |
| 20260510064520 | 15 | 17 | 9.7 | 16.1 | 0.00 | 0.00 | 0.00 | 57 | 1008.8 |
| 20260510063023 | 16 | 11 | 6.4 | 11.3 | 0.00 | 0.00 | 0.00 | 56 | 1008.9 |
| 20260510061517 | 16 | 61 | 8.0 | 17.7 | 0.00 | 0.00 | 0.00 | 54 | 1009.2 |
| 20260510060018 | 17 | 11 | 14.5 | 24.1 | 0.00 | 0.00 | 0.00 | 52 | 1009.0 |
| 20260510054507 | 17 | 10 | 19.3 | 30.6 | 0.00 | 0.00 | 0.00 | 48 | 1008.9 |
| 20260510053002 | 18 | 9 | 22.5 | 32.2 | 0.00 | 0.00 | 0.00 | 45 | 1009.0 |
| 20260510051600 | 19 | 10 | 20.9 | 29.0 | 0.00 | 0.00 | 0.00 | 42 | 1009.2 |
| 20260510050056 | 20 | 9 | 24.1 | 32.2 | 0.00 | 0.00 | 0.00 | 41 | 1009.5 |
| 20260510044554 | 20 | 9 | 14.5 | 22.5 | 0.00 | 0.00 | 0.00 | 40 | 1009.2 |
| 20260510043107 | 22 | 10 | 16.1 | 29.0 | 0.00 | 0.00 | 0.00 | 37 | 1008.7 |
| 20260510041556 | 22 | 5 | 20.9 | 32.2 | 0.00 | 0.00 | 0.00 | 35 | 1008.4 |
| 20260510040059 | 23 | 9 | 22.5 | 30.6 | 0.00 | 0.00 | 0.00 | 33 | 1007.7 |
| 20260510034553 | 23 | 10 | 4.8 | 9.7 | 0.00 | 0.00 | 0.00 | 30 | 1007.5 |
| 20260510033053 | 26 | 18 | 4.8 | 22.5 | 0.00 | 0.00 | 0.00 | 23 | 1007.1 |
| 20260510031556 | 23 | 360 | 4.8 | 19.3 | 0.00 | 0.00 | 0.00 | 31 | 1006.9 |
| 20260510030051 | 22 | 20 | 6.4 | 9.7 | 0.00 | 0.00 | 0.00 | 35 | 1006.5 |
| 20260510024550 | 22 | 10 | 4.8 | 12.9 | 0.00 | 0.00 | 0.00 | 34 | 1005.6 |
| 20260510023050 | 23 | 10 | 9.7 | 14.5 | 0.00 | 0.00 | 0.00 | 32 | 1005.0 |
| 20260510021550 | 24 | 9 | 8.0 | 16.1 | 0.00 | 0.00 | 0.00 | 31 | 1005.2 |
| 20260510020050 | 24 | 10 | 16.1 | 22.5 | 0.00 | 0.00 | 0.00 | 29 | 1005.0 |
| 20260510014547 | 24 | 9 | 16.1 | 25.7 | 0.00 | 0.00 | 0.00 | 32 | 1004.7 |
| 20260510013047 | 24 | 20 | 4.8 | 9.7 | 0.00 | 0.00 | 0.00 | 34 | 1004.7 |
| 20260510011547 | 25 | 9 | 4.8 | 8.0 | 0.00 | 0.00 | 0.00 | 32 | 1004.4 |
| 20260510010046 | 26 | 11 | 6.4 | 11.3 | 0.00 | 0.00 | 0.00 | 31 | 1004.3 |
| 20260510004545 | 26 | 11 | 8.0 | 14.5 | 0.00 | 0.00 | 0.00 | 30 | 1004.2 |
| 20260510003048 | 27 | 11 | 16.1 | 20.9 | 0.00 | 0.00 | 0.00 | 28 | 1004.1 |
| 20260510001549 | 28 | 11 | 12.9 | 22.5 | 0.00 | 0.00 | 0.00 | 26 | 1003.7 |
| 20260510000044 | 28 | 60 | 17.7 | 25.7 | 0.00 | 0.00 | 0.00 | 23 | 1003.9 |
| 20260509234542 | 30 | 69 | 22.5 | 29.0 | 0.00 | 0.00 | 0.00 | 22 | 1003.8 |
| 20260509233039 | 29 | 24 | 6.4 | 14.5 | 0.00 | 0.00 | 0.00 | 20 | 1003.7 |
| 20260509231539 | 30 | 360 | 6.4 | 22.5 | 0.00 | 0.00 | 0.00 | 19 | 1003.8 |
| 20260509230037 | 29 | 5 | 14.5 | 41.8 | 0.00 | 0.00 | 0.00 | 19 | 1003.6 |
| 20260509224542 | 29 | 306 | 17.7 | 25.7 | 0.00 | 0.00 | 0.00 | 22 | 1004.1 |
| 20260509223037 | 28 | 18 | 8.0 | 16.1 | 0.00 | 0.00 | 0.00 | 22 | 1004.3 |
| 20260509221535 | 28 | 16 | 17.7 | 48.3 | 0.00 | 0.00 | 0.00 | 22 | 1004.2 |
| 20260509220031 | 29 | 306 | 11.3 | 22.5 | 0.00 | 0.00 | 0.00 | 21 | 1004.2 |
| 20260509214527 | 30 | 259 | 9.7 | 14.5 | 0.00 | 0.00 | 0.00 | 21 | 1004.1 |
| 20260509213025 | 30 | 213 | 12.9 | 17.7 | 0.00 | 0.00 | 0.00 | 21 | 1004.4 |
| 20260509211523 | 30 | 202 | 11.3 | 20.9 | 0.00 | 0.00 | 0.00 | 22 | 1004.7 |
| 20260509210029 | 29 | 298 | 4.8 | 20.9 | 0.00 | 0.00 | 0.00 | 23 | 1004.9 |
| 20260509204518 | 28 | 190 | 11.3 | 19.3 | 0.00 | 0.00 | 0.00 | 24 | 1005.2 |
| 20260509203018 | 28 | 252 | 16.1 | 25.7 | 0.00 | 0.00 | 0.00 | 24 | 1005.4 |
| 20260509201512 | 28 | 290 | 3.2 | 24.1 | 0.00 | 0.00 | 0.00 | 25 | 1005.8 |
| 20260509200010 | 28 | 288 | 12.9 | 17.7 | 0.00 | 0.00 | 0.00 | 26 | 1005.9 |
| 20260509194508 | 28 | 134 | 3.2 | 17.7 | 0.00 | 0.00 | 0.00 | 27 | 1005.9 |
| 20260509193010 | 27 | 219 | 12.9 | 30.6 | 0.00 | 0.00 | 0.00 | 29 | 1006.2 |
| 20260509191502 | 27 | 218 | 14.5 | 32.2 | 0.00 | 0.00 | 0.00 | 30 | 1006.4 |
| 20260509190109 | 27 | 142 | 6.4 | 27.4 | 0.00 | 0.00 | 0.00 | 31 | 1006.6 |
| 20260509184558 | 27 | 208 | 16.1 | 32.2 | 0.00 | 0.00 | 0.00 | 31 | 1006.8 |
| 20260509183056 | 26 | 232 | 14.5 | 33.8 | 0.00 | 0.00 | 0.00 | 32 | 1007.2 |
| 20260509181558 | 26 | 279 | 11.3 | 40.2 | 0.00 | 0.00 | 0.00 | 33 | 1007.5 |
| 20260509180058 | 25 | 276 | 11.3 | 30.6 | 0.00 | 0.00 | 0.00 | 34 | 1007.7 |
| 20260509174549 | 25 | 215 | 22.5 | 35.4 | 0.00 | 0.00 | 0.00 | 35 | 1008.0 |
| 20260509173049 | 25 | 237 | 19.3 | 33.8 | 0.00 | 0.00 | 0.00 | 33 | 1008.1 |
| 20260509171547 | 25 | 253 | 27.4 | 35.4 | 0.00 | 0.00 | 0.00 | 33 | 1008.3 |
| 20260509170043 | 25 | 195 | 20.9 | 35.4 | 0.00 | 0.00 | 0.00 | 32 | 1008.5 |
| 20260509164547 | 24 | 213 | 12.9 | 25.7 | 0.00 | 0.00 | 0.00 | 34 | 1008.6 |
| 20260509163038 | 24 | 18 | 20.9 | 32.2 | 0.00 | 0.00 | 0.00 | 35 | 1009.0 |
| 20260509161536 | 23 | 17 | 14.5 | 33.8 | 0.00 | 0.00 | 0.00 | 37 | 1009.1 |
| 20260509160030 | 23 | 17 | 20.9 | 32.2 | 0.00 | 0.00 | 0.00 | 38 | 1009.3 |
| 20260509154526 | 22 | 19 | 19.3 | 30.6 | 0.00 | 0.00 | 0.00 | 42 | 1009.4 |
| 20260509153023 | 21 | 18 | 25.7 | 33.8 | 0.00 | 0.00 | 0.00 | 43 | 1009.6 |
| 20260509151520 | 20 | 17 | 20.9 | 32.2 | 0.00 | 0.00 | 0.00 | 50 | 1009.7 |
| 20260509150025 | 20 | 360 | 19.3 | 29.0 | 0.00 | 0.00 | 0.00 | 54 | 1009.8 |
| 20260509144511 | 18 | 360 | 19.3 | 27.4 | 0.00 | 0.00 | 0.00 | 57 | 1009.7 |